Time;durP1;ratioP1;P1;durP2;ratioP2;P2;SDS_P1;SDS_P2;PMS_P1;PMS_P2;Temp;Humidity;BMP_temperature;BMP_pressure;BME280_temperature;BME280_humidity;BME280_pressure;Samples;Min_cycle;Max_cycle;Signal;HPM_P1;HPM_P2
2021/07/18 00:02:08;;;;;;;8.58;7.45;;;;;;;21.38;69.99;99648.47;255740;1104;115551;-68
2021/07/18 00:07:13;;;;;;;9.23;8.33;;;;;;;21.38;70.76;99640.33;254425;1104;115422;-67
2021/07/18 00:12:18;;;;;;;8.75;7.85;;;;;;;21.39;70.76;99643.84;253892;1104;114905;-67
2021/07/18 00:17:22;;;;;;;9.00;8.10;;;;;;;21.39;70.78;99631.09;253781;1104;115211;-69
2021/07/18 00:22:27;;;;;;;20.38;8.95;;;;;;;21.37;70.85;99636.02;253909;1104;115994;-67
2021/07/18 00:27:32;;;;;;;9.48;6.83;;;;;;;21.33;70.89;99645.07;255711;1104;115933;-67
2021/07/18 00:32:36;;;;;;;8.75;7.60;;;;;;;21.15;70.80;99644.89;256852;1104;115487;-67
2021/07/18 00:37:40;;;;;;;8.98;7.63;;;;;;;21.15;71.11;99646.80;254025;1104;114867;-68
2021/07/18 00:42:45;;;;;;;16.70;10.60;;;;;;;21.25;71.73;99632.25;253864;1104;115135;-67
2021/07/18 00:47:50;;;;;;;18.98;12.28;;;;;;;21.35;72.01;99618.45;253911;1104;116525;-67
2021/07/18 00:52:57;;;;;;;27.43;13.85;;;;;;;21.44;72.33;99624.72;255108;1104;115634;-68
2021/07/18 00:58:03;;;;;;;17.53;13.25;;;;;;;21.48;72.58;99622.98;255927;1104;115395;-67
2021/07/18 01:03:09;;;;;;;18.38;14.75;;;;;;;21.53;72.73;99622.06;253964;1104;115699;-68
2021/07/18 01:08:18;;;;;;;21.23;15.95;;;;;;;21.55;73.49;99622.55;254477;1104;116554;-67
2021/07/18 01:13:23;;;;;;;21.53;15.90;;;;;;;21.63;73.38;99619.10;253818;1104;116394;-67
2021/07/18 01:18:28;;;;;;;20.45;15.18;;;;;;;21.65;73.55;99612.27;256427;1104;116178;-67
2021/07/18 01:23:35;;;;;;;20.25;15.20;;;;;;;21.68;73.66;99618.98;257026;1104;115820;-69
2021/07/18 01:28:40;;;;;;;20.48;15.20;;;;;;;21.70;73.72;99630.32;255451;1104;116226;-68
2021/07/18 01:33:45;;;;;;;21.05;14.15;;;;;;;21.77;73.94;99636.08;257068;1104;116220;-68
2021/07/18 01:38:50;;;;;;;15.50;13.40;;;;;;;21.82;73.72;99646.81;257129;1104;115361;-68
2021/07/18 01:43:54;;;;;;;17.88;14.28;;;;;;;21.84;73.88;99648.10;256287;1104;115650;-67
2021/07/18 01:49:00;;;;;;;14.95;12.78;;;;;;;21.77;73.66;99647.73;254342;1104;115545;-67
2021/07/18 01:54:09;;;;;;;24.80;12.25;;;;;;;21.78;73.77;99654.77;253771;1100;115856;-68
2021/07/18 01:59:15;;;;;;;17.70;12.93;;;;;;;21.80;73.96;99660.69;255247;1104;115632;-67
2021/07/18 02:04:20;;;;;;;12.43;11.13;;;;;;;21.81;73.87;99659.58;255754;1104;116073;-66
2021/07/18 02:09:24;;;;;;;15.40;12.15;;;;;;;21.76;73.88;99659.70;254490;1104;116313;-69
2021/07/18 02:14:29;;;;;;;12.60;11.30;;;;;;;21.77;74.13;99655.88;255478;1104;115557;-68
2021/07/18 02:19:34;;;;;;;11.95;10.30;;;;;;;21.75;73.33;99655.38;256018;1104;115483;-69
2021/07/18 02:24:40;;;;;;;;;;;;;;;21.75;73.88;99652.67;253958;1104;115628;-68
2021/07/18 02:29:45;;;;;;;15.30;11.80;;;;;;;21.66;73.92;99664.60;254390;1104;103356;-68
2021/07/18 02:34:51;;;;;;;13.35;10.85;;;;;;;21.60;74.06;99669.34;255738;1104;115496;-67
2021/07/18 02:39:56;;;;;;;16.23;12.40;;;;;;;21.57;73.95;99667.25;253938;1104;115410;-66
2021/07/18 02:45:10;;;;;;;14.43;12.55;;;;;;;21.54;74.06;99675.20;253727;1104;115614;-67
2021/07/18 02:50:18;;;;;;;13.55;10.23;;;;;;;21.56;74.04;99678.41;254057;1104;115447;-67
2021/07/18 02:55:23;;;;;;;17.38;12.25;;;;;;;21.55;74.20;99682.23;253743;1104;115617;-67
2021/07/18 03:00:28;;;;;;;19.30;13.28;;;;;;;21.55;74.25;99680.31;255068;1104;115606;-66
2021/07/18 03:05:33;;;;;;;17.40;11.78;;;;;;;21.54;74.01;99684.14;253683;1104;115336;-66
2021/07/18 03:10:38;;;;;;;19.80;10.00;;;;;;;21.49;74.18;99682.34;255046;1104;115179;-67
2021/07/18 03:15:42;;;;;;;13.98;10.15;;;;;;;21.50;74.25;99688.58;255910;1104;116749;-68
2021/07/18 03:20:47;;;;;;;14.05;9.60;;;;;;;21.54;74.01;99697.70;257075;1104;115859;-67
2021/07/18 03:25:52;;;;;;;12.70;10.45;;;;;;;21.59;73.71;99696.78;257240;1104;115571;-67
2021/07/18 03:30:57;;;;;;;13.78;8.95;;;;;;;21.57;73.78;99696.28;257117;1104;115464;-68
2021/07/18 03:36:03;;;;;;;9.50;7.53;;;;;;;21.51;73.51;99709.16;257102;1104;114978;-69
2021/07/18 03:41:08;;;;;;;8.53;7.63;;;;;;;21.48;73.95;99710.58;257100;1104;114490;-67
2021/07/18 03:46:12;;;;;;;9.47;7.33;;;;;;;21.49;73.23;99711.38;256555;1104;115440;-67
2021/07/18 03:51:17;;;;;;;14.38;8.80;;;;;;;21.59;73.24;99705.72;255096;1104;116145;-68
2021/07/18 03:56:23;;;;;;;13.03;7.98;;;;;;;21.66;73.15;99710.72;253809;1104;115447;-68
2021/07/18 04:01:27;;;;;;;13.10;7.50;;;;;;;21.71;72.70;99719.52;254032;1104;115714;-67
2021/07/18 04:06:32;;;;;;;9.27;8.37;;;;;;;21.66;72.45;99721.57;253705;1104;116720;-67
2021/07/18 04:11:37;;;;;;;14.43;7.55;;;;;;;21.71;72.39;99710.57;255059;1104;116636;-67
2021/07/18 04:16:42;;;;;;;7.90;6.38;;;;;;;21.83;72.40;99721.67;255133;1104;116132;-67
2021/07/18 04:21:46;;;;;;;10.08;7.20;;;;;;;21.96;72.06;99730.87;256483;1104;117021;-67
2021/07/18 04:26:52;;;;;;;7.05;6.43;;;;;;;22.10;71.74;99734.32;254626;1098;116300;-68
2021/07/18 04:31:56;;;;;;;10.05;6.75;;;;;;;22.24;71.61;99743.20;253965;1104;117143;-67
2021/07/18 04:37:03;;;;;;;9.70;6.80;;;;;;;22.35;71.30;99739.08;253815;1104;116368;-67
2021/07/18 04:42:08;;;;;;;6.57;5.87;;;;;;;22.44;70.79;99737.21;254431;1104;115770;-69
2021/07/18 04:47:13;;;;;;;7.37;5.80;;;;;;;22.77;70.95;99742.28;253815;1104;115361;-69
2021/07/18 04:52:17;;;;;;;9.55;7.68;;;;;;;23.09;70.06;99736.48;254705;1104;114970;-67
2021/07/18 04:57:21;;;;;;;12.80;7.35;;;;;;;23.78;68.81;99731.08;253919;1104;115551;-67
2021/07/18 05:02:27;;;;;;;9.75;7.05;;;;;;;23.93;68.33;99735.20;254017;1104;115167;-68
2021/07/18 05:07:32;;;;;;;11.33;8.08;;;;;;;24.22;67.44;99731.77;253931;1104;115627;-64
2021/07/18 05:12:38;;;;;;;8.58;7.68;;;;;;;26.25;65.91;99737.63;255470;1104;115965;-65
2021/07/18 05:17:42;;;;;;;8.90;6.60;;;;;;;28.02;63.02;99744.22;257157;1104;115777;-68
2021/07/18 05:22:46;;;;;;;11.50;8.23;;;;;;;29.12;60.87;99744.22;257169;1104;136522;-68
2021/07/18 05:27:52;;;;;;;8.90;8.03;;;;;;;29.80;59.52;99740.95;257162;1104;115472;-68
2021/07/18 05:32:57;;;;;;;9.97;8.93;;;;;;;29.71;58.19;99743.91;257077;1104;120994;-69
2021/07/18 05:38:01;;;;;;;9.85;8.83;;;;;;;28.98;58.31;99752.94;257270;1104;115238;-68
2021/07/18 05:43:05;;;;;;;12.60;8.00;;;;;;;28.56;57.63;99749.94;257163;1104;114341;-68
2021/07/18 05:48:11;;;;;;;7.40;6.70;;;;;;;29.43;57.01;99755.13;256469;1104;115856;-67
2021/07/18 05:53:16;;;;;;;14.40;8.08;;;;;;;30.91;55.22;99754.69;253742;1104;115288;-68
2021/07/18 05:58:21;;;;;;;7.10;5.80;;;;;;;33.48;52.10;99756.13;253786;1100;115141;-68
2021/07/18 06:03:25;;;;;;;8.55;4.50;;;;;;;34.62;50.10;99759.96;253816;1100;114855;-68
2021/07/18 06:08:31;;;;;;;5.60;5.10;;;;;;;33.99;48.65;99759.48;254179;1104;115392;-68
2021/07/18 06:13:35;;;;;;;4.08;3.78;;;;;;;34.06;47.72;99761.48;254424;1099;115925;-68
2021/07/18 06:18:40;;;;;;;9.80;4.50;;;;;;;35.52;46.09;99751.09;253713;1099;114831;-68
2021/07/18 06:23:49;;;;;;;4.58;4.25;;;;;;;36.83;44.56;99754.23;253777;1104;114874;-69
2021/07/18 06:28:54;;;;;;;9.88;4.20;;;;;;;37.38;43.59;99756.83;253590;1104;115107;-69
2021/07/18 06:34:01;;;;;;;4.73;4.43;;;;;;;36.75;43.08;99753.50;254382;1099;116440;-68
2021/07/18 06:39:09;;;;;;;4.43;3.83;;;;;;;36.00;42.42;99756.04;253536;1104;115080;-68
2021/07/18 06:44:15;;;;;;;4.70;3.98;;;;;;;36.15;42.22;99765.84;254682;1104;115702;-69
2021/07/18 06:49:22;;;;;;;4.33;4.03;;;;;;;36.32;41.30;99764.97;254072;1104;115751;-69
2021/07/18 06:54:26;;;;;;;13.13;3.60;;;;;;;36.64;39.82;99770.26;255450;1104;115817;-71
2021/07/18 06:59:31;;;;;;;4.30;3.90;;;;;;;35.72;40.10;99776.38;255079;1104;114942;-69
2021/07/18 07:04:36;;;;;;;7.40;4.03;;;;;;;34.30;39.83;99762.72;254172;1100;115070;-70
2021/07/18 07:09:41;;;;;;;5.23;3.80;;;;;;;33.42;41.31;99766.77;253865;1104;114830;-69
2021/07/18 07:14:46;;;;;;;4.28;3.98;;;;;;;33.61;41.12;99763.70;254407;1104;114835;-69
2021/07/18 07:19:52;;;;;;;4.60;3.58;;;;;;;33.19;41.49;99768.98;255285;1104;115177;-69
2021/07/18 07:24:57;;;;;;;3.35;3.05;;;;;;;34.33;41.38;99770.23;253671;1104;115274;-70
2021/07/18 07:30:08;;;;;;;5.20;4.33;;;;;;;34.85;41.09;99762.37;253648;1104;115508;-69
2021/07/18 07:35:14;;;;;;;3.17;2.97;;;;;;;34.71;40.03;99765.90;253903;1104;115328;-70
2021/07/18 07:40:19;;;;;;;3.48;3.18;;;;;;;34.51;40.48;99770.27;257124;1104;115105;-70
2021/07/18 07:45:25;;;;;;;5.13;4.38;;;;;;;34.15;40.66;99763.88;257045;1104;116614;-71
2021/07/18 07:50:29;;;;;;;6.65;4.00;;;;;;;33.71;40.21;99767.67;257110;1104;116118;-71
2021/07/18 07:55:33;;;;;;;4.00;3.60;;;;;;;33.56;40.10;99774.34;254785;1104;115472;-69
2021/07/18 08:00:38;;;;;;;4.00;3.73;;;;;;;33.00;40.75;99767.30;255040;1104;115840;-69
2021/07/18 08:05:43;;;;;;;6.90;4.38;;;;;;;32.75;40.98;99773.42;256091;1104;116305;-68
2021/07/18 08:10:48;;;;;;;5.53;4.58;;;;;;;32.26;40.98;99764.70;255695;1104;115057;-71
2021/07/18 08:15:53;;;;;;;5.23;4.83;;;;;;;31.59;42.03;99770.20;255762;1104;115530;-68
2021/07/18 08:20:57;;;;;;;8.20;5.45;;;;;;;31.13;42.49;99776.70;255390;1104;115747;-71
2021/07/18 08:26:03;;;;;;;8.27;6.03;;;;;;;30.73;43.24;99784.69;254221;1104;115307;-72
2021/07/18 08:31:07;;;;;;;5.10;4.68;;;;;;;30.43;43.66;99781.80;254152;1104;115808;-69
2021/07/18 08:36:15;;;;;;;7.73;5.80;;;;;;;30.12;44.09;99774.57;254243;1104;115826;-70
2021/07/18 08:41:23;;;;;;;6.90;6.23;;;;;;;29.79;44.29;99777.83;254290;1099;115638;-69
2021/07/18 08:46:27;;;;;;;7.23;6.53;;;;;;;29.57;44.99;99773.86;254696;1104;114832;-75
2021/07/18 08:51:33;;;;;;;13.10;6.70;;;;;;;29.59;46.39;99776.25;255165;1104;115728;-73
2021/07/18 08:56:40;;;;;;;7.30;6.07;;;;;;;29.60;45.72;99773.14;255334;1099;115019;-71
2021/07/18 09:01:45;;;;;;;5.58;5.18;;;;;;;29.74;46.02;99772.63;254346;1104;116054;-70
2021/07/18 09:06:52;;;;;;;9.33;5.10;;;;;;;30.02;45.31;99781.45;254369;1104;116056;-71
2021/07/18 09:12:03;;;;;;;5.83;5.43;;;;;;;30.13;45.52;99776.16;253960;1104;115803;-72
2021/07/18 09:17:21;;;;;;;5.93;5.43;;;;;;;30.57;45.89;99778.55;254345;1104;116670;-72
2021/07/18 09:22:26;;;;;;;5.37;4.97;;;;;;;30.55;44.57;99776.13;255769;1104;115151;-71
2021/07/18 09:27:36;;;;;;;4.83;4.43;;;;;;;30.61;44.28;99769.16;254389;1104;117538;-70
2021/07/18 09:32:45;;;;;;;5.03;4.67;;;;;;;30.58;43.78;99774.60;257171;1104;115261;-69
2021/07/18 09:37:51;;;;;;;5.27;4.73;;;;;;;30.74;44.28;99767.02;256941;1104;115344;-70
2021/07/18 09:42:58;;;;;;;;;;;;;;;31.02;43.46;99767.45;256534;1104;115373;-70
2021/07/18 09:48:04;;;;;;;4.63;4.33;;;;;;;31.14;43.86;99766.48;257973;1104;102694;-71
2021/07/18 09:53:16;;;;;;;6.10;4.90;;;;;;;31.33;43.06;99766.34;257128;1104;116183;-71
2021/07/18 09:58:23;;;;;;;6.03;5.53;;;;;;;31.40;43.06;99751.88;256862;1104;115576;-70
2021/07/18 10:03:29;;;;;;;5.53;5.13;;;;;;;31.53;43.46;99764.23;256688;1104;115291;-70
2021/07/18 10:08:34;;;;;;;6.10;5.60;;;;;;;31.51;42.87;99761.05;256641;1104;115143;-70
2021/07/18 10:13:40;;;;;;;6.20;5.40;;;;;;;31.46;43.45;99753.14;255663;1100;115543;-71
2021/07/18 10:18:48;;;;;;;9.13;6.57;;;;;;;31.53;43.71;99750.45;254092;1104;116301;-70
2021/07/18 10:23:55;;;;;;;7.23;6.57;;;;;;;31.42;43.89;99742.07;254544;1104;114913;-70
2021/07/18 10:28:59;;;;;;;7.87;7.13;;;;;;;31.11;44.40;99748.71;254247;1104;115589;-70
2021/07/18 10:34:06;;;;;;;9.43;6.98;;;;;;;31.23;44.79;99747.70;254482;1104;115277;-69
2021/07/18 10:39:40;;;;;;;6.58;6.08;;;;;;;31.33;44.71;99738.80;254229;1104;115436;-72
2021/07/18 10:44:50;;;;;;;8.17;6.83;;;;;;;31.19;44.37;99743.34;255335;1104;115817;-70
2021/07/18 10:49:59;;;;;;;10.03;6.85;;;;;;;31.39;45.14;99736.52;254353;1104;117318;-73
2021/07/18 10:55:22;;;;;;;10.77;6.27;;;;;;;31.62;44.08;99723.41;254426;1104;115442;-72
2021/07/18 11:00:29;;;;;;;6.73;6.13;;;;;;;31.47;44.41;99719.70;254223;1104;115390;-73
2021/07/18 11:05:45;;;;;;;7.13;6.50;;;;;;;31.20;44.23;99728.38;255007;1104;114986;-73
2021/07/18 11:10:55;;;;;;;6.53;6.03;;;;;;;30.84;44.93;99727.87;254084;1104;115240;-72
2021/07/18 11:16:00;;;;;;;7.33;6.63;;;;;;;30.85;44.38;99729.45;254045;1104;115694;-73
2021/07/18 11:21:07;;;;;;;7.38;6.75;;;;;;;30.56;44.96;99732.91;254378;1104;115201;-73
2021/07/18 11:26:17;;;;;;;8.25;7.55;;;;;;;30.19;45.06;99738.97;255354;1104;117144;-73
2021/07/18 11:31:26;;;;;;;7.45;6.75;;;;;;;30.53;46.09;99733.64;254243;1104;116068;-72
2021/07/18 11:36:33;;;;;;;8.83;7.63;;;;;;;30.87;46.03;99729.88;254826;1104;116231;-73
2021/07/18 11:41:38;;;;;;;7.98;6.80;;;;;;;30.80;45.84;99727.81;255620;1104;116976;-73
2021/07/18 11:46:50;;;;;;;7.25;6.60;;;;;;;30.40;45.38;99722.03;256355;1100;115584;-70
2021/07/18 11:51:56;;;;;;;7.10;6.20;;;;;;;30.64;45.53;99718.91;254253;1104;115157;-69
2021/07/18 11:57:06;;;;;;;6.73;5.98;;;;;;;30.99;45.58;99713.13;255806;1104;115077;-70
2021/07/18 12:02:12;;;;;;;9.80;6.00;;;;;;;31.21;45.01;99702.42;255390;1104;115220;-70
2021/07/18 12:07:18;;;;;;;11.50;6.30;;;;;;;31.21;45.15;99702.42;255264;1104;115876;-72
2021/07/18 12:12:22;;;;;;;7.13;6.63;;;;;;;31.17;45.27;99696.11;254939;1104;115394;-72
2021/07/18 12:17:26;;;;;;;8.48;5.32;;;;;;;31.26;44.82;99693.84;254155;1104;115497;-72
2021/07/18 12:22:30;;;;;;;6.45;5.95;;;;;;;31.08;43.94;99680.63;254262;1099;115085;-72
2021/07/18 12:27:37;;;;;;;6.35;5.85;;;;;;;30.99;44.29;99682.85;254567;1104;117493;-70
2021/07/18 12:32:42;;;;;;;7.20;6.58;;;;;;;30.89;44.41;99680.73;254318;1104;115365;-73
2021/07/18 12:37:47;;;;;;;7.80;7.10;;;;;;;30.46;44.08;99680.09;254374;1104;115632;-72
2021/07/18 12:42:54;;;;;;;6.78;6.10;;;;;;;30.50;44.31;99671.91;254403;1104;115226;-72
2021/07/18 12:48:03;;;;;;;7.18;6.63;;;;;;;30.44;43.83;99679.67;254226;1104;115219;-72
2021/07/18 12:53:15;;;;;;;7.65;6.45;;;;;;;30.60;44.35;99674.03;254806;1104;115276;-72
2021/07/18 12:58:27;;;;;;;6.40;5.90;;;;;;;30.30;42.96;99670.38;254236;1104;114929;-72
2021/07/18 13:03:34;;;;;;;8.60;6.80;;;;;;;30.21;43.54;99675.36;255021;1104;115581;-72
2021/07/18 13:08:41;;;;;;;8.45;6.18;;;;;;;30.36;43.31;99671.67;254351;1099;114948;-72
2021/07/18 13:13:45;;;;;;;6.88;6.28;;;;;;;30.40;43.30;99665.06;254268;1104;116199;-72
2021/07/18 13:18:49;;;;;;;6.65;6.05;;;;;;;30.56;43.92;99653.95;254301;1099;115199;-72
2021/07/18 13:23:54;;;;;;;;;;;;;;;30.51;43.20;99658.95;254871;1104;115100;-72
2021/07/18 13:29:19;;;;;;;7.33;6.73;;;;;;;30.46;42.45;99658.09;257029;1104;103112;-72
2021/07/18 13:34:23;;;;;;;;;;;;;;;30.46;41.91;99652.59;255724;1104;117492;-72
2021/07/18 13:39:28;;;;;;;7.13;6.53;;;;;;;30.27;41.39;99649.91;256893;1104;105049;-72
2021/07/18 13:44:35;;;;;;;8.05;6.45;;;;;;;30.26;41.92;99647.56;254460;1104;115407;-72
2021/07/18 13:49:40;;;;;;;8.28;5.85;;;;;;;30.13;42.19;99649.70;254990;1104;115672;-72
2021/07/18 13:54:44;;;;;;;7.45;6.75;;;;;;;29.81;42.08;99638.92;256437;1104;115733;-72
2021/07/18 13:59:50;;;;;;;6.60;5.03;;;;;;;29.66;41.74;99641.77;257029;1104;115468;-72
2021/07/18 14:04:55;;;;;;;6.98;6.38;;;;;;;29.63;41.88;99632.33;257130;1104;115044;-72
2021/07/18 14:10:00;;;;;;;11.55;6.90;;;;;;;29.47;41.86;99637.11;256774;1104;118048;-72
2021/07/18 14:15:14;;;;;;;6.23;5.65;;;;;;;29.52;41.66;99628.58;257041;1104;115480;-71
2021/07/18 14:20:28;;;;;;;8.40;7.60;;;;;;;29.50;42.17;99628.15;256438;1100;114446;-72
2021/07/18 14:25:34;;;;;;;7.85;7.18;;;;;;;29.48;42.72;99627.72;254940;1104;117201;-72
2021/07/18 14:30:40;;;;;;;7.40;6.48;;;;;;;29.42;42.93;99626.41;254349;1104;114730;-71
2021/07/18 14:35:45;;;;;;;6.63;5.97;;;;;;;29.41;43.89;99622.08;254333;1104;118491;-71
2021/07/18 14:40:51;;;;;;;7.53;6.83;;;;;;;29.45;43.05;99621.00;255570;1104;115221;-72
2021/07/18 14:45:57;;;;;;;9.00;5.47;;;;;;;29.44;43.33;99626.85;254419;1104;115728;-71
2021/07/18 14:51:03;;;;;;;6.63;5.40;;;;;;;29.15;43.30;99623.52;254252;1098;116945;-71
2021/07/18 14:56:07;;;;;;;5.55;4.68;;;;;;;28.93;42.50;99609.73;254195;1104;117237;-71
2021/07/18 15:01:12;;;;;;;10.30;4.18;;;;;;;28.79;43.05;99612.92;254477;1099;116683;-71
2021/07/18 15:06:16;;;;;;;5.50;3.87;;;;;;;28.69;42.25;99611.56;254498;1104;117159;-72
2021/07/18 15:11:20;;;;;;;2.87;2.67;;;;;;;28.54;41.20;99611.59;254930;1104;116715;-72
2021/07/18 15:16:29;;;;;;;3.83;3.53;;;;;;;28.43;40.78;99606.65;255340;1104;115066;-71
2021/07/18 15:21:34;;;;;;;4.90;4.15;;;;;;;28.35;41.64;99602.17;254063;1104;117319;-70
2021/07/18 15:26:42;;;;;;;6.03;3.70;;;;;;;28.27;42.00;99603.16;254410;1104;116119;-71
2021/07/18 15:31:47;;;;;;;4.33;3.93;;;;;;;28.23;42.69;99610.49;254266;1104;115635;-71
2021/07/18 15:36:51;;;;;;;5.83;4.38;;;;;;;28.18;42.77;99595.08;255051;1104;116509;-71
2021/07/18 15:41:56;;;;;;;7.48;6.78;;;;;;;28.06;43.62;99595.20;255293;1104;115095;-71
2021/07/18 15:47:04;;;;;;;6.95;6.08;;;;;;;28.01;43.68;99611.11;256458;1104;115183;-72
2021/07/18 15:52:09;;;;;;;8.38;7.20;;;;;;;27.97;43.92;99613.75;256666;1104;115418;-71
2021/07/18 15:57:13;;;;;;;11.10;9.15;;;;;;;28.00;44.21;99615.79;254751;1104;115317;-72
2021/07/18 16:02:17;;;;;;;10.58;9.38;;;;;;;28.02;44.43;99613.49;255849;1104;115731;-72
2021/07/18 16:07:24;;;;;;;12.63;9.70;;;;;;;27.94;44.46;99603.50;256339;1104;115916;-72
2021/07/18 16:12:28;;;;;;;10.58;9.38;;;;;;;27.81;44.92;99605.55;256802;1104;115883;-72
2021/07/18 16:17:32;;;;;;;11.10;10.03;;;;;;;27.57;44.62;99604.85;255844;1104;115020;-72
2021/07/18 16:22:38;;;;;;;12.90;10.37;;;;;;;27.40;45.10;99608.72;257311;1104;115983;-71
2021/07/18 16:27:42;;;;;;;12.63;9.45;;;;;;;27.26;45.56;99603.64;255227;1104;116052;-71
2021/07/18 16:32:46;;;;;;;10.45;7.43;;;;;;;27.23;45.75;99604.33;255069;1104;115744;-72
2021/07/18 16:37:51;;;;;;;;;;;;;;;27.17;45.69;99605.75;254080;1104;118336;-71
2021/07/18 16:42:56;;;;;;;6.15;4.05;;;;;;;27.14;45.56;99601.77;255932;1104;102957;-72
2021/07/18 16:48:01;;;;;;;10.53;3.67;;;;;;;27.13;45.46;99613.06;254570;1104;115856;-71
2021/07/18 16:53:07;;;;;;;;;;;;;;;27.15;46.26;99608.83;254254;1104;115845;-71
2021/07/18 16:58:12;;;;;;;5.25;2.48;;;;;;;27.22;46.51;99612.89;254939;1104;103085;-71
2021/07/18 17:03:18;;;;;;;8.43;2.58;;;;;;;27.17;46.43;99608.48;254897;1104;117279;-71
2021/07/18 17:08:23;;;;;;;3.40;2.87;;;;;;;27.08;46.27;99611.36;254124;1104;115092;-70
2021/07/18 17:13:27;;;;;;;3.63;3.03;;;;;;;26.97;46.17;99607.52;255202;1104;115922;-69
2021/07/18 17:18:34;;;;;;;4.00;3.05;;;;;;;26.87;46.59;99618.13;254463;1104;115299;-71
2021/07/18 17:23:39;;;;;;;5.83;3.00;;;;;;;26.75;47.05;99618.95;254323;1104;117238;-71
2021/07/18 17:28:48;;;;;;;6.50;2.53;;;;;;;26.61;47.28;99624.77;254142;1104;115716;-70
2021/07/18 17:33:58;;;;;;;3.70;2.83;;;;;;;26.54;47.73;99626.52;254051;1104;116718;-70
2021/07/18 17:39:03;;;;;;;3.07;2.43;;;;;;;26.39;47.79;99617.86;254130;1104;114800;-70
2021/07/18 17:44:09;;;;;;;2.58;2.33;;;;;;;26.26;48.22;99618.19;256148;1104;115441;-70
2021/07/18 17:49:13;;;;;;;3.33;2.65;;;;;;;26.11;48.47;99614.98;254984;1104;114963;-70
2021/07/18 17:54:18;;;;;;;2.25;2.13;;;;;;;25.96;49.03;99625.80;254702;1104;116224;-71
2021/07/18 17:59:25;;;;;;;;;;;;;;;25.83;49.41;99627.70;255157;1104;116044;-70
2021/07/18 18:04:31;;;;;;;2.80;2.53;;;;;;;25.66;50.06;99634.16;255663;1104;103133;-70
2021/07/18 18:09:36;;;;;;;3.98;2.75;;;;;;;25.51;51.13;99635.55;255724;1104;115827;-71
2021/07/18 18:14:42;;;;;;;3.08;2.78;;;;;;;25.37;51.29;99631.55;256790;1104;115191;-71
2021/07/18 18:19:47;;;;;;;7.10;2.38;;;;;;;25.15;51.86;99640.86;254113;1104;116006;-69
2021/07/18 18:24:52;;;;;;;3.08;2.35;;;;;;;24.94;52.29;99640.84;256086;1104;115175;-70
2021/07/18 18:29:58;;;;;;;3.30;3.03;;;;;;;24.69;53.00;99644.56;257283;1104;116820;-70
2021/07/18 18:35:05;;;;;;;1.75;1.65;;;;;;;24.48;53.50;99639.05;255010;1104;115872;-70
2021/07/18 18:40:13;;;;;;;6.33;2.27;;;;;;;24.25;54.28;99635.81;255373;1100;116000;-70
2021/07/18 18:45:22;;;;;;;2.50;2.30;;;;;;;24.03;54.63;99631.41;254638;1104;115032;-70
2021/07/18 18:50:28;;;;;;;3.00;2.35;;;;;;;23.80;55.32;99638.22;254903;1104;115472;-68
2021/07/18 18:55:34;;;;;;;3.05;2.83;;;;;;;23.58;55.56;99647.37;254658;1104;115597;-68
2021/07/18 19:00:41;;;;;;;2.23;2.10;;;;;;;23.39;56.24;99646.89;255566;1104;115356;-68
2021/07/18 19:05:48;;;;;;;4.98;2.50;;;;;;;23.23;56.82;99648.52;254858;1100;117512;-70
2021/07/18 19:10:56;;;;;;;7.05;2.73;;;;;;;23.11;57.48;99649.15;254680;1104;116775;-67
2021/07/18 19:16:01;;;;;;;4.80;2.33;;;;;;;22.91;57.88;99647.08;255230;1104;115319;-69
2021/07/18 19:21:07;;;;;;;2.78;2.58;;;;;;;22.74;58.06;99653.23;254932;1104;114810;-68
2021/07/18 19:26:13;;;;;;;;;;;;;;;22.59;58.59;99648.27;254414;1104;115136;-68
2021/07/18 19:31:20;;;;;;;4.05;2.88;;;;;;;22.43;58.93;99647.89;255062;1099;103087;-67
2021/07/18 19:36:25;;;;;;;5.98;2.70;;;;;;;22.30;59.12;99656.97;254330;1104;116547;-68
2021/07/18 19:41:30;;;;;;;;;;;;;;;22.18;59.48;99644.78;254256;1104;117529;-67
2021/07/18 19:46:37;;;;;;;5.73;2.73;;;;;;;22.05;59.57;99653.81;255673;1104;104151;-67
2021/07/18 19:51:42;;;;;;;3.23;2.75;;;;;;;21.98;59.99;99656.17;254172;1104;116474;-67
2021/07/18 19:56:48;;;;;;;4.28;2.88;;;;;;;21.95;59.99;99664.13;254372;1104;116164;-67
2021/07/18 20:01:54;;;;;;;3.60;2.33;;;;;;;21.88;60.32;99669.19;254043;1099;116087;-67
2021/07/18 20:06:59;;;;;;;3.00;2.50;;;;;;;21.85;59.74;99668.70;256349;1104;116016;-68
2021/07/18 20:12:05;;;;;;;3.38;2.20;;;;;;;21.87;59.76;99671.11;256699;1104;114972;-68
2021/07/18 20:17:10;;;;;;;3.25;2.20;;;;;;;21.87;59.53;99662.96;257012;1104;115699;-66
2021/07/18 20:22:15;;;;;;;2.70;1.87;;;;;;;21.85;59.57;99668.70;257067;1104;114946;-65
2021/07/18 20:27:20;;;;;;;7.37;2.27;;;;;;;21.85;59.59;99676.84;257039;1104;115391;-66
2021/07/18 20:32:25;;;;;;;2.90;1.53;;;;;;;21.83;59.07;99695.34;257169;1104;115499;-65
2021/07/18 20:37:30;;;;;;;6.98;1.98;;;;;;;21.78;59.37;99703.61;257100;1104;116145;-65
2021/07/18 20:42:34;;;;;;;8.15;2.00;;;;;;;21.71;59.16;99697.80;257083;1104;116892;-68
2021/07/18 20:47:40;;;;;;;6.38;1.93;;;;;;;21.68;59.09;99697.65;254945;1104;116331;-67
2021/07/18 20:52:46;;;;;;;2.50;1.60;;;;;;;21.61;59.19;99708.13;256903;1104;116517;-66
2021/07/18 20:57:51;;;;;;;6.10;2.13;;;;;;;21.54;59.16;99707.75;255749;1104;115688;-68
2021/07/18 21:02:55;;;;;;;2.23;2.10;;;;;;;21.48;59.10;99715.20;256158;1104;115299;-65
2021/07/18 21:08:00;;;;;;;10.33;1.60;;;;;;;21.43;59.28;99716.11;254947;1104;116643;-65
2021/07/18 21:13:05;;;;;;;8.93;2.20;;;;;;;21.32;59.23;99727.52;255424;1099;117314;-65
2021/07/18 21:18:10;;;;;;;4.30;2.10;;;;;;;21.23;59.23;99732.05;254689;1104;115694;-67
2021/07/18 21:23:15;;;;;;;16.63;2.58;;;;;;;21.14;59.62;99745.48;254816;1100;116156;-64
2021/07/18 21:28:20;;;;;;;5.48;3.43;;;;;;;21.09;59.49;99743.72;255213;1104;116719;-65
2021/07/18 21:33:26;;;;;;;6.35;2.98;;;;;;;20.96;59.69;99747.23;253831;1104;115986;-65
2021/07/18 21:38:31;;;;;;;3.00;2.80;;;;;;;20.85;59.86;99745.83;254665;1104;116457;-66
2021/07/18 21:43:37;;;;;;;8.63;3.18;;;;;;;20.74;60.01;99744.45;254091;1104;116034;-64
2021/07/18 21:48:41;;;;;;;4.53;3.13;;;;;;;20.63;60.17;99749.25;255587;1104;116156;-67
2021/07/18 21:53:45;;;;;;;6.05;2.98;;;;;;;20.53;60.46;99759.47;254937;1104;116474;-66
2021/07/18 21:58:49;;;;;;;8.35;3.00;;;;;;;20.43;60.90;99763.99;255741;1104;116168;-65
2021/07/18 22:03:55;;;;;;;5.03;3.80;;;;;;;20.41;60.74;99768.09;254124;1104;116859;-67
2021/07/18 22:08:59;;;;;;;3.93;3.53;;;;;;;20.31;61.15;99774.45;257213;1104;116048;-67
2021/07/18 22:14:04;;;;;;;3.85;3.45;;;;;;;20.24;61.20;99779.45;256167;1104;114966;-67
2021/07/18 22:19:09;;;;;;;4.40;3.53;;;;;;;20.15;61.25;99775.84;257135;1104;114992;-66
2021/07/18 22:24:14;;;;;;;4.93;4.03;;;;;;;20.04;61.62;99777.09;257066;1104;115051;-67
2021/07/18 22:29:18;;;;;;;7.20;3.83;;;;;;;19.95;61.32;99782.38;256924;1104;115500;-67
2021/07/18 22:34:24;;;;;;;9.17;4.80;;;;;;;19.90;61.86;99789.76;257157;1104;115031;-66
2021/07/18 22:39:29;;;;;;;;;;;;;;;19.80;61.98;99788.04;257342;1104;115247;-67
2021/07/18 22:44:34;;;;;;;9.20;4.78;;;;;;;19.74;62.14;99783.80;258173;1104;102472;-67
2021/07/18 22:49:39;;;;;;;11.25;4.78;;;;;;;19.68;62.05;99782.27;257290;1104;116657;-67
2021/07/18 22:54:45;;;;;;;6.80;5.63;;;;;;;19.61;62.65;99788.03;255787;1104;116365;-67
2021/07/18 22:59:50;;;;;;;4.88;4.38;;;;;;;19.58;62.87;99791.31;253793;1104;115348;-68
2021/07/18 23:04:54;;;;;;;6.77;5.27;;;;;;;19.54;63.01;99798.44;254562;1104;114380;-66
2021/07/18 23:09:59;;;;;;;10.43;5.83;;;;;;;19.44;63.09;99798.53;255128;1104;116706;-66
2021/07/18 23:15:06;;;;;;;13.13;5.08;;;;;;;19.34;63.43;99804.07;254041;1104;117449;-68
2021/07/18 23:20:14;;;;;;;5.53;4.88;;;;;;;19.16;63.41;99814.58;254461;1104;116973;-68
2021/07/18 23:25:20;;;;;;;9.18;5.00;;;;;;;19.01;63.80;99817.45;253863;1104;116107;-67